createdAt,value
2017-08-26T00:00:44.700Z,91.02
2017-08-26T00:01:57.306Z,90.35
2017-08-26T00:03:09.909Z,90.64
2017-08-26T00:04:22.185Z,90.45
2017-08-26T00:05:34.843Z,90.35
2017-08-26T00:06:46.859Z,88.54
2017-08-26T00:07:59.405Z,88.44
2017-08-26T00:09:11.644Z,88.34
2017-08-26T00:10:23.640Z,88.92
2017-08-26T00:11:36.213Z,88.82
2017-08-26T00:12:48.804Z,89.2
2017-08-26T00:14:01.080Z,89.11
2017-08-26T00:15:13.699Z,89.3
2017-08-26T00:16:26.353Z,89.2
2017-08-26T00:17:38.950Z,88.44
2017-08-26T00:18:51.287Z,88.82
2017-08-26T00:20:03.534Z,89.11
2017-08-26T00:21:16.073Z,89.01
2017-08-26T00:22:28.333Z,88.82
2017-08-26T00:23:40.653Z,88.82
2017-08-26T00:24:53.266Z,88.63
2017-08-26T00:26:05.534Z,88.82
2017-08-26T00:27:17.853Z,88.92
2017-08-26T00:28:30.141Z,89.11
2017-08-26T00:29:42.477Z,87.68
2017-08-26T00:30:55.021Z,86.15
2017-08-26T00:32:07.575Z,87.1
2017-08-26T00:33:20.102Z,86.15
2017-08-26T00:34:32.738Z,86.24
2017-08-26T00:35:45.002Z,85.58
2017-08-26T00:36:57.236Z,85.67
2017-08-26T00:38:09.795Z,85.19
2017-08-26T00:39:22.083Z,85.48
2017-08-26T00:40:34.722Z,85.86
2017-08-26T00:41:47.368Z,86.15
2017-08-26T00:42:59.932Z,86.05
2017-08-26T00:44:12.166Z,86.43
2017-08-26T00:45:24.744Z,86.72
2017-08-26T00:46:37.369Z,86.24
2017-08-26T00:47:49.933Z,86.82
2017-08-26T00:49:02.528Z,86.68
2017-08-26T00:50:15.120Z,86.49
2017-08-26T00:51:26.740Z,86.72
2017-08-26T00:52:38.667Z,86.68
2017-08-26T00:53:51.231Z,86.68
2017-08-26T00:55:03.545Z,86.3
2017-08-26T00:56:16.123Z,86.01
2017-08-26T00:57:28.394Z,86.77
2017-08-26T00:58:40.943Z,84.96
2017-08-26T00:59:53.853Z,85.05
2017-08-26T01:01:06.107Z,84.67
2017-08-26T01:02:18.757Z,84.77
2017-08-26T01:03:31.039Z,84.2
2017-08-26T01:04:43.016Z,84.29
2017-08-26T01:05:54.962Z,83.72
2017-08-26T01:07:07.535Z,83.72
2017-08-26T01:08:20.072Z,83.81
2017-08-26T01:09:32.628Z,84.2
2017-08-26T01:10:44.646Z,84.2
2017-08-26T01:11:57.221Z,84.67
2017-08-26T01:13:09.491Z,84.77
2017-08-26T01:14:21.444Z,84.96
2017-08-26T01:15:33.999Z,85.05
2017-08-26T01:16:46.577Z,84.86
2017-08-26T01:17:59.221Z,83.34
2017-08-26T01:19:11.758Z,83.24
2017-08-26T01:20:24.328Z,82
2017-08-26T01:21:37.182Z,81.62
2017-08-26T01:22:49.402Z,81.43
2017-08-26T01:24:01.961Z,81.9
2017-08-26T01:25:14.520Z,82.09
2017-08-26T01:26:27.101Z,82.38
2017-08-26T01:27:39.386Z,82.29
2017-08-26T01:28:51.979Z,82.29
2017-08-26T01:30:04.263Z,82.67
2017-08-26T01:31:16.504Z,82.76
2017-08-26T01:32:29.124Z,83.05
2017-08-26T01:33:41.451Z,83.34
2017-08-26T01:34:54.007Z,82.29
2017-08-26T01:36:06.290Z,81.43
2017-08-26T01:37:18.918Z,82.19
2017-08-26T01:38:31.489Z,81.9
2017-08-26T01:39:44.101Z,81.71
2017-08-26T01:40:56.741Z,81.43
2017-08-26T01:42:09.055Z,82.29
2017-08-26T01:43:21.053Z,81.62
2017-08-26T01:44:33.566Z,82.09
2017-08-26T01:45:45.855Z,82
2017-08-26T01:46:58.513Z,81.9
2017-08-26T01:48:10.815Z,82.38
2017-08-26T01:49:23.448Z,81.81
2017-08-26T01:50:36.030Z,82.29
2017-08-26T01:51:48.603Z,82.38
2017-08-26T01:53:01.161Z,82.29
2017-08-26T01:54:13.693Z,81.81
2017-08-26T01:55:25.963Z,81.96
2017-08-26T01:56:38.258Z,82.06
2017-08-26T01:57:50.532Z,81.96
2017-08-26T01:59:03.197Z,81.67
2017-08-26T02:00:15.822Z,81.29
2017-08-26T02:01:28.446Z,81.58
2017-08-26T02:02:41.051Z,81.77
2017-08-26T02:03:53.578Z,81.48
2017-08-26T02:05:05.801Z,81.29
2017-08-26T02:06:18.049Z,81.58
2017-08-26T02:07:30.660Z,80.81
2017-08-26T02:08:42.625Z,81.58
2017-08-26T02:09:54.939Z,81.48
2017-08-26T02:11:07.504Z,81.38
2017-08-26T02:12:20.123Z,81.86
2017-08-26T02:13:32.397Z,81.48
2017-08-26T02:14:44.682Z,81.86
2017-08-26T02:15:56.664Z,81.38
2017-08-26T02:17:09.239Z,81.58
2017-08-26T02:18:21.495Z,81.38
2017-08-26T02:19:34.126Z,80.81
2017-08-26T02:20:46.385Z,81.1
2017-08-26T02:21:59.017Z,80.91
2017-08-26T02:23:11.266Z,81.1
2017-08-26T02:24:23.556Z,81.29
2017-08-26T02:25:35.806Z,81.38
2017-08-26T02:26:48.383Z,81.48
2017-08-26T02:28:00.724Z,81.01
2017-08-26T02:29:12.974Z,81.01
2017-08-26T02:30:25.590Z,81.38
2017-08-26T02:31:37.892Z,80.91
2017-08-26T02:32:50.481Z,81.38
2017-08-26T02:34:02.812Z,81.01
2017-08-26T02:35:15.069Z,81.48
2017-08-26T02:36:27.690Z,81.58
2017-08-26T02:37:40.207Z,80.81
2017-08-26T02:38:52.797Z,81.29
2017-08-26T02:40:05.403Z,81.1
2017-08-26T02:41:17.684Z,80.91
2017-08-26T02:42:29.952Z,81.01
2017-08-26T02:43:42.511Z,80.91
2017-08-26T02:44:55.168Z,80.72
2017-08-26T02:46:07.083Z,80.91
2017-08-26T02:47:19.360Z,80.53
2017-08-26T02:48:31.686Z,80.24
2017-08-26T02:49:43.990Z,79.86
2017-08-26T02:50:56.609Z,80.15
2017-08-26T02:52:08.853Z,80.15
2017-08-26T02:53:20.832Z,78.62
2017-08-26T02:54:33.072Z,79.1
2017-08-26T02:55:45.667Z,78.81
2017-08-26T02:56:57.973Z,79.19
2017-08-26T02:58:10.275Z,79.1
2017-08-26T02:59:22.509Z,79.1
2017-08-26T03:00:35.100Z,79.38
2017-08-26T03:01:47.356Z,79.67
2017-08-26T03:02:59.942Z,79.19
2017-08-26T03:04:12.543Z,79.38
2017-08-26T03:05:24.834Z,79.19
2017-08-26T03:06:37.478Z,79.48
2017-08-26T03:07:49.736Z,79
2017-08-26T03:09:02.021Z,79
2017-08-26T03:10:14.626Z,78.23
2017-08-26T03:11:26.878Z,78.62
2017-08-26T03:12:39.245Z,77.95
2017-08-26T03:13:51.487Z,78.72
2017-08-26T03:15:04.073Z,77.76
2017-08-26T03:16:16.649Z,78.05
2017-08-26T03:17:28.912Z,78.72
2017-08-26T03:18:41.548Z,78.43
2017-08-26T03:19:53.863Z,78.33
2017-08-26T03:21:06.702Z,78.43
2017-08-26T03:22:18.977Z,78.77
2017-08-26T03:23:31.567Z,78.43
2017-08-26T03:24:43.825Z,77.28
2017-08-26T03:25:56.375Z,77.38
2017-08-26T03:27:08.571Z,77.76
2017-08-26T03:28:21.167Z,77.28
2017-08-26T03:29:33.501Z,77.09
2017-08-26T03:30:45.797Z,76.42
2017-08-26T03:31:58.059Z,76.71
2017-08-26T03:33:09.707Z,76.62
2017-08-26T03:34:22.280Z,77
2017-08-26T03:35:34.949Z,76.81
2017-08-26T03:36:47.243Z,76.62
2017-08-26T03:37:59.507Z,76.9
2017-08-26T03:39:11.729Z,76.62
2017-08-26T03:40:23.983Z,75.76
2017-08-26T03:41:36.569Z,76.33
2017-08-26T03:42:48.814Z,76.14
2017-08-26T03:44:01.043Z,76.52
2017-08-26T03:45:13.615Z,76.71
2017-08-26T03:46:26.165Z,76.42
2017-08-26T03:47:38.817Z,76.42
2017-08-26T03:48:51.124Z,76.23
2017-08-26T03:50:03.070Z,76.52
2017-08-26T03:51:15.609Z,76.23
2017-08-26T03:52:28.193Z,75.76
2017-08-26T03:53:40.545Z,76.1
2017-08-26T03:54:52.796Z,75.95
2017-08-26T03:56:05.056Z,75.85
2017-08-26T03:57:17.381Z,75.76
2017-08-26T03:58:29.949Z,75.85
2017-08-26T03:59:42.610Z,76.1
2017-08-26T04:00:54.890Z,76.57
2017-08-26T04:02:07.177Z,76.62
2017-08-26T04:03:19.111Z,76.2
2017-08-26T04:04:31.393Z,76.33
2017-08-26T04:05:43.643Z,76.81
2017-08-26T04:06:56.233Z,76.33
2017-08-26T04:08:08.509Z,76.42
2017-08-26T04:09:20.469Z,76.71
2017-08-26T04:10:33.022Z,76.81
2017-08-26T04:11:45.292Z,76.52
2017-08-26T04:12:57.837Z,77.28
2017-08-26T04:14:09.838Z,77.09
2017-08-26T04:15:22.121Z,76.71
2017-08-26T04:16:34.742Z,76.81
2017-08-26T04:17:47.370Z,76.67
2017-08-26T04:19:00.067Z,77.25
2017-08-26T04:20:12.716Z,76.62
2017-08-26T04:21:25.309Z,76.62
2017-08-26T04:22:37.870Z,76.71
2017-08-26T04:23:50.441Z,76.71
2017-08-26T04:25:02.755Z,76.9
2017-08-26T04:26:15.705Z,77
2017-08-26T04:27:28.360Z,76.14
2017-08-26T04:28:40.908Z,76.23
2017-08-26T04:29:53.505Z,76.52
2017-08-26T04:31:05.807Z,76.52
2017-08-26T04:32:18.358Z,76.42
2017-08-26T04:33:30.996Z,75.85
2017-08-26T04:34:43.347Z,75.95
2017-08-26T04:35:55.606Z,75.85
2017-08-26T04:37:07.870Z,76.04
2017-08-26T04:38:20.498Z,75.76
2017-08-26T04:39:33.067Z,75.47
2017-08-26T04:40:45.313Z,75.28
2017-08-26T04:41:57.583Z,75.28
2017-08-26T04:43:09.808Z,75.37
2017-08-26T04:44:22.435Z,75.37
2017-08-26T04:45:35.077Z,74.93
2017-08-26T04:46:47.716Z,74.93
2017-08-26T04:47:59.978Z,74.93
2017-08-26T04:49:12.295Z,74.93
2017-08-26T04:50:24.964Z,74.65
2017-08-26T04:51:37.606Z,75.13
2017-08-26T04:52:49.531Z,75.03
2017-08-26T04:54:01.470Z,75.13
2017-08-26T04:55:13.786Z,74.65
2017-08-26T04:56:26.374Z,74.65
2017-08-26T04:57:38.601Z,74.55
2017-08-26T04:58:51.431Z,74.65
2017-08-26T05:00:04.043Z,74.65
2017-08-26T05:01:16.650Z,74.84
2017-08-26T05:02:29.214Z,74.78
2017-08-26T05:03:41.755Z,74.98
2017-08-26T05:04:54.324Z,74.88
2017-08-26T05:06:06.622Z,74.88
2017-08-26T05:07:18.860Z,74.78
2017-08-26T05:08:31.126Z,74.98
2017-08-26T05:09:43.702Z,74.59
2017-08-26T05:10:56.287Z,74.78
2017-08-26T05:12:08.931Z,74.69
2017-08-26T05:13:21.506Z,74.49
2017-08-26T05:14:33.791Z,74.88
2017-08-26T05:15:46.379Z,74.59
2017-08-26T05:16:58.362Z,74.82
2017-08-26T05:18:10.977Z,75.01
2017-08-26T05:19:23.261Z,75.39
2017-08-26T05:20:35.863Z,74.91
2017-08-26T05:21:48.121Z,75.01
2017-08-26T05:23:00.628Z,75.01
2017-08-26T05:24:12.637Z,75.96
2017-08-26T05:25:25.256Z,75.78
2017-08-26T05:26:37.808Z,75.68
2017-08-26T05:27:50.095Z,76.25
2017-08-26T05:29:02.606Z,76.45
2017-08-26T05:30:14.585Z,75.91
2017-08-26T05:31:27.398Z,76.29
2017-08-26T05:32:39.652Z,76.29
2017-08-26T05:33:51.939Z,76.57
2017-08-26T05:35:04.196Z,76.57
2017-08-26T05:36:16.486Z,76.86
2017-08-26T05:37:28.775Z,77.25
2017-08-26T05:38:41.396Z,77.15
2017-08-26T05:39:53.968Z,79.73
2017-08-26T05:41:06.224Z,82.31
2017-08-26T05:42:18.540Z,82.07
2017-08-26T05:43:30.512Z,81.3
2017-08-26T05:44:42.757Z,81.49
2017-08-26T05:45:55.378Z,81.3
2017-08-26T05:47:07.930Z,81.3
2017-08-26T05:48:20.551Z,81.88
2017-08-26T05:49:32.850Z,85.03
2017-08-26T05:50:45.486Z,83.79
2017-08-26T05:51:58.049Z,84.17
2017-08-26T05:53:10.051Z,84.46
2017-08-26T05:54:22.308Z,84.65
2017-08-26T05:55:34.904Z,84.84
2017-08-26T05:56:47.240Z,85.61
2017-08-26T05:57:59.522Z,85.89
2017-08-26T05:59:11.756Z,85.89
2017-08-26T06:00:24.368Z,86.94
2017-08-26T06:01:36.930Z,86.28
2017-08-26T06:02:48.949Z,87.23
2017-08-26T06:04:01.779Z,87.27
2017-08-26T06:05:14.309Z,87.37
2017-08-26T06:06:26.946Z,87.76
2017-08-26T06:07:39.525Z,92.16
2017-08-26T06:08:50.876Z,92.25
2017-08-26T06:10:03.144Z,93.88
2017-08-26T06:11:15.481Z,93.26
2017-08-26T06:12:27.999Z,95.36
2017-08-26T06:13:40.594Z,94.4
2017-08-26T06:14:53.230Z,95.07
2017-08-26T06:16:05.799Z,94.5
2017-08-26T06:17:18.099Z,94.79
2017-08-26T06:18:30.688Z,94.69
2017-08-26T06:19:42.963Z,95.51
2017-08-26T06:20:55.252Z,96.18
2017-08-26T06:22:07.557Z,95.41
2017-08-26T06:23:20.134Z,95.31
2017-08-26T06:24:32.655Z,95.31
2017-08-26T06:25:45.528Z,98.1
2017-08-26T06:26:58.047Z,97.8
2017-08-26T06:28:10.652Z,97.23
2017-08-26T06:29:23.288Z,97.85
2017-08-26T06:30:35.867Z,97.66
2017-08-26T06:31:48.494Z,98.05
2017-08-26T06:33:00.775Z,99.99
2017-08-26T06:34:13.332Z,99.99
2017-08-26T06:35:26.066Z,99.99
2017-08-26T06:36:38.639Z,99.99
2017-08-26T06:37:50.296Z,99.99
2017-08-26T06:39:02.914Z,99.99
2017-08-26T06:40:15.573Z,99.99
2017-08-26T06:41:28.181Z,99.99
2017-08-26T06:42:40.796Z,99.99
2017-08-26T06:43:53.124Z,99.99
2017-08-26T06:45:05.381Z,99.99
2017-08-26T06:46:17.677Z,99.99
2017-08-26T06:47:30.219Z,99.99
2017-08-26T06:48:42.183Z,99.99
2017-08-26T06:49:54.783Z,99.99
2017-08-26T06:51:07.044Z,99.99
2017-08-26T06:52:19.592Z,99.99
2017-08-26T06:53:32.190Z,99.99
2017-08-26T06:54:44.864Z,99.99
2017-08-26T06:55:57.442Z,99.54
2017-08-26T06:57:10.041Z,99.99
2017-08-26T06:58:22.567Z,99.93
2017-08-26T06:59:35.129Z,99.99
2017-08-26T07:00:47.688Z,99.93
2017-08-26T07:01:59.642Z,99.98
2017-08-26T07:03:11.937Z,99.99
2017-08-26T07:04:23.987Z,99.99
2017-08-26T07:05:36.505Z,99.99
2017-08-26T07:06:49.159Z,99.99
2017-08-26T07:08:01.760Z,99.99
2017-08-26T07:09:14.085Z,99.99
2017-08-26T07:10:26.676Z,98.87
2017-08-26T07:11:39.006Z,98.19
2017-08-26T07:12:51.321Z,97.81
2017-08-26T07:14:03.852Z,98.58
2017-08-26T07:15:16.753Z,98.77
2017-08-26T07:16:29.062Z,98.87
2017-08-26T07:17:41.727Z,99.35
2017-08-26T07:18:54.042Z,99.44
2017-08-26T07:20:06.027Z,99.64
2017-08-26T07:21:18.334Z,98.77
2017-08-26T07:22:30.963Z,98.68
2017-08-26T07:23:42.576Z,98.87
2017-08-26T07:24:54.898Z,97.81
2017-08-26T07:26:07.530Z,98.29
2017-08-26T07:27:19.867Z,98.68
2017-08-26T07:28:32.507Z,98.92
2017-08-26T07:29:45.096Z,99.11
2017-08-26T07:30:57.627Z,98.54
2017-08-26T07:32:10.250Z,98.24
2017-08-26T07:33:22.869Z,98.44
2017-08-26T07:34:35.459Z,97.52
2017-08-26T07:35:47.736Z,97.04
2017-08-26T07:36:59.688Z,95.79
2017-08-26T07:38:12.015Z,95.59
2017-08-26T07:39:24.581Z,94.73
2017-08-26T07:40:37.263Z,94.58
2017-08-26T07:41:50.141Z,95.64
2017-08-26T07:43:02.437Z,94
2017-08-26T07:44:15.082Z,94.1
2017-08-26T07:45:27.700Z,94
2017-08-26T07:46:40.284Z,94.39
2017-08-26T07:47:52.522Z,93.52
2017-08-26T07:49:04.190Z,94.05
2017-08-26T07:50:16.752Z,94.53
2017-08-26T07:51:29.082Z,94.53
2017-08-26T07:52:41.656Z,94.43
2017-08-26T07:53:54.264Z,93.04
2017-08-26T07:55:06.840Z,92.32
2017-08-26T07:56:19.141Z,92.74
2017-08-26T07:57:31.745Z,90.91
2017-08-26T07:58:44.297Z,91.64
2017-08-26T07:59:56.923Z,92.5
2017-08-26T08:01:08.892Z,93.18
2017-08-26T08:02:21.527Z,93.85
2017-08-26T08:03:34.084Z,94.73
2017-08-26T08:04:46.425Z,92.7
2017-08-26T08:05:58.700Z,93.57
2017-08-26T08:07:10.991Z,93.47
2017-08-26T08:08:22.964Z,94.05
2017-08-26T08:09:34.927Z,94.34
2017-08-26T08:10:47.485Z,94.34
2017-08-26T08:12:00.103Z,94.43
2017-08-26T08:13:12.074Z,94.24
2017-08-26T08:14:24.594Z,94.96
2017-08-26T08:15:36.555Z,94.82
2017-08-26T08:16:48.837Z,94.77
2017-08-26T08:18:01.389Z,92.84
2017-08-26T08:19:13.972Z,92.8
2017-08-26T08:20:26.562Z,93.8
2017-08-26T08:21:38.522Z,94.34
2017-08-26T08:22:50.817Z,94.63
2017-08-26T08:24:03.386Z,95.21
2017-08-26T08:25:16.029Z,94.63
2017-08-26T08:26:28.303Z,95.01
2017-08-26T08:27:40.866Z,94.92
2017-08-26T08:28:52.815Z,93.28
2017-08-26T08:30:04.738Z,93.76
2017-08-26T08:31:17.356Z,94.73
2017-08-26T08:32:29.606Z,95.4
2017-08-26T08:33:42.213Z,95.74
2017-08-26T08:34:54.469Z,95.45
2017-08-26T08:36:07.120Z,95.06
2017-08-26T08:37:19.751Z,95.36
2017-08-26T08:38:31.971Z,94.68
2017-08-26T08:39:43.625Z,95.4
2017-08-26T08:40:56.223Z,92.99
2017-08-26T08:42:08.831Z,94
2017-08-26T08:43:21.423Z,93.91
2017-08-26T08:44:34.011Z,92.85
2017-08-26T08:45:45.677Z,93.43
2017-08-26T08:46:58.310Z,94.48
2017-08-26T08:48:10.629Z,95.01
2017-08-26T08:49:22.914Z,95.16
2017-08-26T08:50:35.501Z,94.58
2017-08-26T08:51:47.449Z,94.05
2017-08-26T08:52:59.710Z,92.5
2017-08-26T08:54:12.250Z,93.28
2017-08-26T08:55:24.200Z,92.5
2017-08-26T08:56:36.742Z,91.83
2017-08-26T08:57:49.035Z,92.32
2017-08-26T08:59:01.280Z,93.47
2017-08-26T09:00:13.577Z,93.76
2017-08-26T09:01:26.265Z,91.54
2017-08-26T09:02:38.945Z,92.22
2017-08-26T09:03:51.242Z,93.37
2017-08-26T09:05:03.832Z,93.66
2017-08-26T09:06:16.132Z,92.5
2017-08-26T09:07:28.773Z,91.74
2017-08-26T09:08:41.346Z,92.8
2017-08-26T09:09:53.917Z,93.42
2017-08-26T09:11:06.538Z,92.36
2017-08-26T09:12:18.844Z,92.55
2017-08-26T09:13:31.495Z,92.65
2017-08-26T09:14:44.116Z,89.95
2017-08-26T09:15:56.708Z,88.79
2017-08-26T09:17:08.751Z,88.98
2017-08-26T09:18:21.364Z,89.37
2017-08-26T09:19:34.273Z,89.37
2017-08-26T09:20:46.839Z,89.47
2017-08-26T09:21:59.453Z,89.22
2017-08-26T09:23:12.068Z,88.83
2017-08-26T09:24:24.413Z,87.96
2017-08-26T09:25:36.660Z,88.68
2017-08-26T09:26:49.240Z,88.68
2017-08-26T09:28:01.851Z,87.91
2017-08-26T09:29:13.824Z,88.68
2017-08-26T09:30:26.459Z,88.29
2017-08-26T09:31:38.418Z,87.52
2017-08-26T09:32:51.026Z,88.63
2017-08-26T09:34:02.699Z,88.05
2017-08-26T09:35:15.242Z,86.6
2017-08-26T09:36:27.530Z,86.11
2017-08-26T09:37:40.151Z,87.08
2017-08-26T09:38:52.421Z,88.15
2017-08-26T09:40:04.358Z,87.51
2017-08-26T09:41:16.930Z,87.71
2017-08-26T09:42:29.240Z,89.15
2017-08-26T09:43:41.784Z,89.64
2017-08-26T09:44:54.414Z,89.35
2017-08-26T09:46:07.039Z,88.96
2017-08-26T09:47:19.283Z,88.96
2017-08-26T09:48:31.980Z,86.69
2017-08-26T09:49:44.609Z,86.3
2017-08-26T09:50:56.543Z,87.07
2017-08-26T09:52:09.154Z,87.75
2017-08-26T09:53:21.744Z,88.13
2017-08-26T09:54:34.333Z,88.53
2017-08-26T09:55:46.940Z,89.49
2017-08-26T09:56:59.527Z,89.78
2017-08-26T09:58:12.091Z,88.53
2017-08-26T09:59:24.390Z,88.13
2017-08-26T10:00:36.986Z,87.65
2017-08-26T10:01:49.546Z,85.42
2017-08-26T10:03:01.548Z,84.84
2017-08-26T10:04:14.181Z,85.42
2017-08-26T10:05:26.738Z,85.91
2017-08-26T10:06:39.361Z,86.49
2017-08-26T10:07:51.600Z,86.49
2017-08-26T10:09:03.833Z,86.1
2017-08-26T10:10:16.399Z,86.3
2017-08-26T10:11:29.045Z,86.78
2017-08-26T10:12:41.341Z,86.78
2017-08-26T10:13:53.862Z,87.03
2017-08-26T10:15:06.456Z,86.65
2017-08-26T10:16:19.055Z,86.93
2017-08-26T10:17:31.610Z,86.55
2017-08-26T10:18:44.246Z,87.99
2017-08-26T10:19:56.562Z,88.29
2017-08-26T10:21:09.190Z,88.19
2017-08-26T10:22:21.518Z,88.09
2017-08-26T10:23:33.800Z,88.19
2017-08-26T10:24:46.073Z,88.81
2017-08-26T10:25:58.402Z,87.55
2017-08-26T10:27:10.325Z,85.72
2017-08-26T10:28:22.247Z,87.65
2017-08-26T10:29:34.511Z,86.88
2017-08-26T10:30:46.803Z,87.27
2017-08-26T10:31:59.078Z,87.65
2017-08-26T10:33:11.696Z,88.33
2017-08-26T10:34:24.272Z,89.01
2017-08-26T10:35:36.859Z,86.98
2017-08-26T10:36:48.827Z,88.04
2017-08-26T10:38:01.377Z,86.92
2017-08-26T10:39:13.311Z,86.54
2017-08-26T10:40:25.876Z,86.24
2017-08-26T10:41:38.185Z,86.34
2017-08-26T10:42:50.783Z,86.82
2017-08-26T10:44:02.775Z,87.21
2017-08-26T10:45:14.797Z,87.21
2017-08-26T10:46:27.093Z,88.09
2017-08-26T10:47:39.379Z,88.51
2017-08-26T10:48:51.982Z,87.74
2017-08-26T10:50:03.929Z,84
2017-08-26T10:51:16.200Z,83.13
2017-08-26T10:52:28.770Z,83.85
2017-08-26T10:53:41.342Z,83.7
2017-08-26T10:54:53.612Z,83.02
2017-08-26T10:56:06.182Z,81.02
2017-08-26T10:57:19.060Z,80.15
2017-08-26T10:58:31.398Z,81.84
2017-08-26T10:59:43.425Z,82.23
2017-08-26T11:00:55.801Z,80.48
2017-08-26T11:02:08.461Z,81.78
2017-08-26T11:03:21.081Z,82.65
2017-08-26T11:04:33.642Z,81.3
2017-08-26T11:05:46.247Z,80.76
2017-08-26T11:06:58.836Z,79.78
2017-08-26T11:08:11.056Z,80.07
2017-08-26T11:09:23.302Z,80.46
2017-08-26T11:10:35.891Z,79.33
2017-08-26T11:11:48.558Z,78.27
2017-08-26T11:13:00.814Z,77.62
2017-08-26T11:14:13.024Z,76.65
2017-08-26T11:15:25.305Z,76.84
2017-08-26T11:16:37.939Z,77.27
2017-08-26T11:17:50.578Z,75.81
2017-08-26T11:19:02.542Z,75.38
2017-08-26T11:20:15.170Z,76.2
2017-08-26T11:21:27.492Z,75.91
2017-08-26T11:22:40.135Z,76.5
2017-08-26T11:23:52.139Z,77.99
2017-08-26T11:25:04.403Z,77.89
2017-08-26T11:26:16.655Z,75.46
2017-08-26T11:27:28.945Z,74.49
2017-08-26T11:28:41.238Z,73.84
2017-08-26T11:29:53.190Z,73.65
2017-08-26T11:31:05.456Z,73.16
2017-08-26T11:32:18.046Z,74.82
2017-08-26T11:33:30.262Z,74.52
2017-08-26T11:34:42.879Z,74.46
2017-08-26T11:35:55.478Z,75.3
2017-08-26T11:37:07.466Z,76.08
2017-08-26T11:38:19.512Z,73.35
2017-08-26T11:39:32.130Z,74
2017-08-26T11:40:44.672Z,77.11
2017-08-26T11:41:56.617Z,77.8
2017-08-26T11:43:08.541Z,78.48
2017-08-26T11:44:21.194Z,78.38
2017-08-26T11:45:33.532Z,77.7
2017-08-26T11:46:45.499Z,78.48
2017-08-26T11:47:57.781Z,77.4
2017-08-26T11:49:10.060Z,77.76
2017-08-26T11:50:22.330Z,77.4
2017-08-26T11:51:34.905Z,75.03
2017-08-26T11:52:47.474Z,74.35
2017-08-26T11:53:59.450Z,74.74
2017-08-26T11:55:11.726Z,74.49
2017-08-26T11:56:23.676Z,74.49
2017-08-26T11:57:36.284Z,73.61
2017-08-26T11:58:48.898Z,73.94
2017-08-26T12:00:00.840Z,74.52
2017-08-26T12:01:13.126Z,73.49
2017-08-26T12:02:25.359Z,72.06
2017-08-26T12:03:37.566Z,72.06
2017-08-26T12:04:50.166Z,70.53
2017-08-26T12:06:02.781Z,71.22
2017-08-26T12:07:15.056Z,72
2017-08-26T12:08:27.688Z,72.64
2017-08-26T12:09:40.273Z,74.4
2017-08-26T12:10:52.929Z,72.51
2017-08-26T12:12:05.245Z,72.61
2017-08-26T12:13:17.569Z,73.78
2017-08-26T12:14:30.203Z,73.49
2017-08-26T12:15:42.512Z,74.04
2017-08-26T12:16:55.076Z,75.89
2017-08-26T12:18:07.364Z,73.71
2017-08-26T12:19:19.943Z,74.39
2017-08-26T12:20:32.204Z,74.58
2017-08-26T12:21:44.462Z,74.1
2017-08-26T12:22:57.097Z,75.13
2017-08-26T12:24:08.766Z,75.42
2017-08-26T12:25:21.378Z,77.66
2017-08-26T12:26:33.637Z,77.76
2017-08-26T12:27:45.612Z,78.53
2017-08-26T12:28:57.922Z,78.05
2017-08-26T12:30:09.519Z,76.5
2017-08-26T12:31:21.815Z,77.08
2017-08-26T12:32:34.110Z,76.88
2017-08-26T12:33:46.383Z,77.17
2017-08-26T12:34:58.975Z,77.23
2017-08-26T12:36:11.251Z,77.23
2017-08-26T12:37:23.859Z,78.3
2017-08-26T12:38:36.126Z,76.45
2017-08-26T12:39:48.458Z,77.27
2017-08-26T12:41:00.455Z,77.04
2017-08-26T12:42:13.060Z,77.53
2017-08-26T12:43:25.670Z,77.23
2017-08-26T12:44:37.942Z,76.55
2017-08-26T12:45:50.269Z,77.04
2017-08-26T12:47:02.597Z,77.68
2017-08-26T12:48:15.217Z,78.66
2017-08-26T12:49:27.526Z,80.21
2017-08-26T12:50:40.148Z,81.12
2017-08-26T12:51:52.801Z,80.21
2017-08-26T12:53:05.121Z,80.89
2017-08-26T12:54:17.418Z,81.38
2017-08-26T12:55:30.034Z,80.6
2017-08-26T12:56:42.298Z,81.14
2017-08-26T12:57:54.895Z,82.64
2017-08-26T12:59:07.456Z,83.37
2017-08-26T13:00:20.062Z,83.71
2017-08-26T13:01:32.705Z,82.35
2017-08-26T13:02:45.320Z,81.63
2017-08-26T13:03:57.948Z,80.76
2017-08-26T13:05:09.894Z,81.43
2017-08-26T13:06:21.879Z,80.85
2017-08-26T13:07:34.126Z,79.78
2017-08-26T13:08:46.447Z,80.46
2017-08-26T13:09:59.055Z,80.17
2017-08-26T13:11:11.002Z,80.76
2017-08-26T13:12:23.675Z,80.91
2017-08-26T13:13:35.936Z,81.88
2017-08-26T13:14:48.231Z,80.71
2017-08-26T13:16:00.520Z,81.39
2017-08-26T13:17:12.753Z,81.88
2017-08-26T13:18:25.080Z,82.95
2017-08-26T13:19:37.708Z,80.91
2017-08-26T13:20:50.310Z,82.07
2017-08-26T13:22:02.843Z,83.63
2017-08-26T13:23:15.504Z,81.78
2017-08-26T13:24:27.514Z,81.98
2017-08-26T13:25:39.799Z,84.01
2017-08-26T13:26:52.431Z,83.86
2017-08-26T13:28:05.035Z,84.16
2017-08-26T13:29:17.659Z,81.34
2017-08-26T13:30:29.930Z,81.82
2017-08-26T13:31:42.234Z,82.17
2017-08-26T13:32:54.865Z,83.04
2017-08-26T13:34:07.474Z,83.24
2017-08-26T13:35:20.108Z,82.56
2017-08-26T13:36:32.190Z,83.53
2017-08-26T13:37:44.767Z,83.86
2017-08-26T13:38:57.369Z,83.96
2017-08-26T13:40:09.328Z,83.76
2017-08-26T13:41:21.611Z,83.67
2017-08-26T13:42:34.219Z,84.74
2017-08-26T13:43:46.532Z,85.42
2017-08-26T13:44:58.536Z,84.16
2017-08-26T13:46:10.860Z,81.04
2017-08-26T13:47:23.513Z,80.85
2017-08-26T13:48:36.053Z,81.49
2017-08-26T13:49:48.608Z,80.91
2017-08-26T13:51:01.207Z,81.59
2017-08-26T13:52:13.858Z,83.04
2017-08-26T13:53:26.129Z,86.35
2017-08-26T13:54:38.768Z,84.25
2017-08-26T13:55:51.033Z,84.7
2017-08-26T13:57:03.642Z,83.86
2017-08-26T13:58:16.239Z,84.16
2017-08-26T13:59:28.896Z,84.64
2017-08-26T14:00:41.217Z,84.35
2017-08-26T14:01:53.814Z,84.45
2017-08-26T14:03:06.396Z,83.51
2017-08-26T14:04:19.036Z,84.16
2017-08-26T14:05:31.366Z,84.39
2017-08-26T14:06:43.628Z,85.66
2017-08-26T14:07:56.248Z,85.13
2017-08-26T14:09:08.535Z,83.09
2017-08-26T14:10:20.869Z,83.37
2017-08-26T14:11:33.464Z,84.25
2017-08-26T14:12:46.115Z,85.67
2017-08-26T14:13:58.752Z,85.86
2017-08-26T14:15:11.307Z,84.7
2017-08-26T14:16:23.891Z,85.67
2017-08-26T14:17:36.488Z,86.83
2017-08-26T14:18:49.103Z,85.92
2017-08-26T14:20:00.765Z,86.6
2017-08-26T14:21:13.329Z,88.05
2017-08-26T14:22:25.355Z,88.05
2017-08-26T14:23:38.163Z,86.3
2017-08-26T14:24:50.436Z,84.85
2017-08-26T14:26:02.726Z,85.82
2017-08-26T14:27:15.294Z,85.72
2017-08-26T14:28:27.994Z,85.82
2017-08-26T14:29:40.590Z,85.72
2017-08-26T14:30:52.890Z,85.49
2017-08-26T14:32:05.145Z,86.4
2017-08-26T14:33:17.405Z,87.08
2017-08-26T14:34:30.012Z,85.43
2017-08-26T14:35:42.600Z,85.24
2017-08-26T14:36:55.267Z,86.01
2017-08-26T14:38:07.806Z,86.6
2017-08-26T14:39:20.094Z,85.33
2017-08-26T14:40:32.105Z,86.5
2017-08-26T14:41:44.383Z,86.3
2017-08-26T14:42:56.971Z,84.66
2017-08-26T14:44:09.302Z,86.3
2017-08-26T14:45:21.879Z,86.11
2017-08-26T14:46:34.476Z,85.43
2017-08-26T14:47:46.471Z,85.63
2017-08-26T14:48:59.141Z,85.63
2017-08-26T14:50:11.424Z,85.33
2017-08-26T14:51:23.708Z,85.43
2017-08-26T14:52:36.293Z,85.82
2017-08-26T14:53:48.909Z,87.47
2017-08-26T14:55:00.524Z,87.66
2017-08-26T14:56:12.453Z,85.53
2017-08-26T14:57:24.749Z,85.33
2017-08-26T14:58:36.999Z,86.89
2017-08-26T14:59:49.609Z,85.43
2017-08-26T15:01:01.891Z,87.72
2017-08-26T15:02:14.195Z,87.33
2017-08-26T15:03:26.516Z,88.2
2017-08-26T15:04:38.438Z,88.2
2017-08-26T15:05:51.037Z,88.3
2017-08-26T15:07:03.651Z,87.23
2017-08-26T15:08:15.914Z,86.71
2017-08-26T15:09:28.567Z,87.09
2017-08-26T15:10:40.815Z,86.99
2017-08-26T15:11:53.447Z,87.68
2017-08-26T15:13:05.457Z,88.06
2017-08-26T15:14:17.773Z,88.65
2017-08-26T15:15:30.378Z,87.96
2017-08-26T15:16:42.649Z,87.96
2017-08-26T15:17:54.887Z,88.35
2017-08-26T15:19:06.877Z,88.65
2017-08-26T15:20:19.456Z,91.17
2017-08-26T15:21:32.076Z,90.1
2017-08-26T15:22:44.609Z,91.02
2017-08-26T15:23:56.945Z,91.22
2017-08-26T15:25:09.241Z,90.54
2017-08-26T15:26:21.886Z,90.54
2017-08-26T15:27:34.131Z,91.12
2017-08-26T15:28:46.415Z,90.64
2017-08-26T15:29:59.021Z,89.76
2017-08-26T15:31:11.625Z,90.16
2017-08-26T15:32:23.902Z,91.61
2017-08-26T15:33:36.149Z,92.24
2017-08-26T15:34:48.419Z,92.63
2017-08-26T15:36:00.709Z,93.26
2017-08-26T15:37:12.970Z,93.4